createdAt,value
2019-05-12T00:03:10.623Z,101134.17
2019-05-12T00:08:12.721Z,101136.05
2019-05-12T00:13:14.816Z,101149.97
2019-05-12T00:18:18.096Z,101149.97
2019-05-12T00:23:26.997Z,101154.35
2019-05-12T00:28:24.320Z,101162.82
2019-05-12T00:33:28.253Z,101164.55
2019-05-12T00:38:30.736Z,101167.70
2019-05-12T00:43:32.865Z,101195.55
2019-05-12T00:48:35.042Z,101195.55
2019-05-12T00:53:42.719Z,101193.28
2019-05-12T00:58:41.048Z,101202.27
2019-05-12T01:03:43.106Z,101207.63
2019-05-12T01:08:45.221Z,101216.18
2019-05-12T01:13:48.562Z,101216.18
2019-05-12T01:18:50.695Z,101240.06
2019-05-12T01:23:57.204Z,101240.06
2019-05-12T01:28:58.071Z,101250.67
2019-05-12T01:34:00.212Z,101257.94
2019-05-12T01:39:02.225Z,101266.87
2019-05-12T01:44:04.283Z,101269.46
2019-05-12T01:49:08.333Z,101280.32
2019-05-12T01:54:14.892Z,101281.36
2019-05-12T01:59:14.419Z,101288.92
2019-05-12T02:04:18.110Z,101294.50
2019-05-12T02:09:22.745Z,101304.25
2019-05-12T02:14:24.812Z,101296.30
2019-05-12T02:19:28.233Z,101313.58
2019-05-12T02:24:30.713Z,101314.39
2019-05-12T02:29:32.934Z,101334.72
2019-05-12T02:34:35.277Z,101335.70
2019-05-12T02:39:37.343Z,101337.64
2019-05-12T02:44:39.446Z,101348.34
2019-05-12T02:49:41.561Z,101351.36
2019-05-12T02:54:51.997Z,101348.72
2019-05-12T02:59:48.169Z,101363.39
2019-05-12T03:04:54.733Z,101363.39
2019-05-12T03:09:57.505Z,101374.69
2019-05-12T03:14:59.570Z,101376.47
2019-05-12T03:20:04.938Z,101376.98
2019-05-12T03:25:15.375Z,101390.77
2019-05-12T03:30:12.119Z,101398.67
2019-05-12T03:35:17.433Z,101402.47
2019-05-12T03:40:18.013Z,101406.85
2019-05-12T03:45:20.159Z,101426.12
2019-05-12T03:50:24.390Z,101450.52
2019-05-12T03:55:35.472Z,101466.44
2019-05-12T04:00:30.329Z,101469.99
2019-05-12T04:05:34.987Z,101479.80
2019-05-12T04:10:37.092Z,101493.30
2019-05-12T04:15:39.505Z,101498.14
2019-05-12T04:20:41.551Z,101503.34
2019-05-12T04:25:52.148Z,101513.06
2019-05-12T04:30:48.391Z,101524.59
2019-05-12T04:35:50.383Z,101533.36
2019-05-12T04:40:55.272Z,101549.19
2019-05-12T04:45:56.499Z,101552.05
2019-05-12T04:50:58.581Z,101571.22
2019-05-12T04:56:10.665Z,101577.72
2019-05-12T05:01:06.294Z,101579.91
2019-05-12T05:06:08.672Z,101591.77
2019-05-12T05:11:10.850Z,101606.43
2019-05-12T05:16:14.437Z,101602.50
2019-05-12T05:21:16.820Z,101624.91
2019-05-12T05:26:24.778Z,101638.94
2019-05-12T05:31:24.307Z,101650.86
2019-05-12T05:36:26.572Z,101656.23
2019-05-12T05:41:28.615Z,101671.13
2019-05-12T05:46:30.694Z,101679.41
2019-05-12T05:51:33.517Z,101688.38
2019-05-12T05:56:41.779Z,101692.60
2019-05-12T06:01:45.161Z,101695.63
2019-05-12T06:06:50.715Z,101713.38
2019-05-12T06:11:49.098Z,101713.38
2019-05-12T06:16:51.180Z,101724.20
2019-05-12T06:21:53.459Z,101734.20
2019-05-12T06:27:00.493Z,101738.48
2019-05-12T06:32:05.142Z,101730.34
2019-05-12T06:37:12.159Z,101742.45
2019-05-12T06:42:14.245Z,101761.28
2019-05-12T06:47:14.199Z,101761.28
2019-05-12T06:52:17.709Z,101777.02
2019-05-12T06:57:25.203Z,101777.02
2019-05-12T07:02:24.491Z,101786.66
2019-05-12T07:07:27.698Z,101791.42
2019-05-12T07:12:36.697Z,101786.23
2019-05-12T07:17:49.731Z,101799.74
2019-05-12T07:22:49.849Z,101811.45
2019-05-12T07:27:54.941Z,101814.92
2019-05-12T07:33:01.318Z,101823.09
2019-05-12T07:38:04.567Z,101828.14
2019-05-12T07:43:14.867Z,101824.96
2019-05-12T07:48:13.919Z,101847.84
2019-05-12T07:53:16.030Z,101847.84
2019-05-12T07:58:19.343Z,101853.61
2019-05-12T08:03:24.344Z,101853.61
2019-05-12T08:08:26.642Z,101864.69
2019-05-12T08:13:31.045Z,101873.95
2019-05-12T08:18:37.061Z,101886.41
2019-05-12T08:23:38.090Z,101884.09
2019-05-12T08:28:40.734Z,101884.09
2019-05-12T08:33:44.703Z,101895.84
2019-05-12T08:38:46.794Z,101890.78
2019-05-12T08:43:55.027Z,101895.42
2019-05-12T08:48:57.895Z,101895.42
2019-05-12T08:54:02.330Z,101905.91
2019-05-12T08:59:00.944Z,101905.91
2019-05-12T09:04:06.725Z,101908.67
2019-05-12T09:09:07.593Z,101908.67
2019-05-12T09:14:09.643Z,101925.52
2019-05-12T09:19:16.689Z,101925.52
2019-05-12T09:24:21.747Z,101928.13
2019-05-12T09:29:19.695Z,101936.03
2019-05-12T09:34:23.524Z,101936.75
2019-05-12T09:39:27.152Z,101928.92
2019-05-12T09:44:30.542Z,101938.02
2019-05-12T09:49:39.082Z,101934.95
2019-05-12T09:54:40.834Z,101943.38
2019-05-12T09:59:45.808Z,101932.70
2019-05-12T10:04:50.011Z,101928.94
2019-05-12T10:09:55.081Z,101939.28
2019-05-12T10:14:53.594Z,101934.25
2019-05-12T10:19:58.101Z,101934.25
2019-05-12T10:25:00.172Z,101927.84
2019-05-12T10:30:11.895Z,101928.42
2019-05-12T10:35:12.461Z,101928.55
2019-05-12T10:40:13.911Z,101927.16
2019-05-12T10:45:20.598Z,101933.89
2019-05-12T10:50:23.516Z,101932.36
2019-05-12T10:55:25.566Z,101932.06
2019-05-12T11:00:28.209Z,101934.19
2019-05-12T11:05:30.311Z,101935.59
2019-05-12T11:10:32.494Z,101934.00
2019-05-12T11:15:39.562Z,101921.91
2019-05-12T11:20:39.624Z,101923.02
2019-05-12T11:25:44.101Z,101926.28
2019-05-12T11:30:46.225Z,101928.41
2019-05-12T11:35:50.887Z,101933.61
2019-05-12T11:40:53.853Z,101938.66
